Wednesday, October 18, 2017, 6:16 PM EDT
Back to Local

KRME, Griffiss Airfield

Location: Rome, NY, United States Lat: 43.233
Local Time: 6:16 PM EDT (22:16 GMT) Lon: -75.4
Time Zone: US/Eastern Elev: 505 ft

Show me the last for .
Show Decoded

2017-10-18 17:53 METAR KRME 182153Z 35003KT 10SM CLR 19/10 A3021 RMK AO2 SLP232 T01940100 =
2017-10-18 16:53 METAR KRME 182053Z 00000KT 10SM CLR 21/11 A3021 RMK AO2 SLP231 T02060106 56015 =
2017-10-18 15:53 METAR KRME 181953Z 29006KT 10SM CLR 21/10 A3022 RMK AO2 SLP234 T02060100 =
2017-10-18 14:53 METAR KRME 181853Z VRB04KT 10SM CLR 21/10 A3024 RMK AO2 SLP239 T02060100 =
2017-10-18 13:53 METAR KRME 181753Z 31004KT 10SM CLR 19/10 A3026 RMK AO2 SLP245 T01890100 10189
                 20039 58016 =
2017-10-18 12:53 METAR KRME 181653Z 26006KT 10SM CLR 18/10 A3028 RMK AO2 SLP253 T01830100 =
2017-10-18 11:53 METAR KRME 181553Z 25007KT 10SM CLR 17/09 A3030 RMK AO2 SLP260 T01670094 =
2017-10-18 10:53 METAR KRME 181453Z 00000KT 10SM CLR 14/08 A3031 RMK AO2 SLP263 T01440078 58001 =
2017-10-18 09:53 METAR KRME 181353Z 00000KT 10SM FEW029 11/07 A3031 RMK AO2 SLP266 T01110067 =
2017-10-18 09:28 METAR KRME 181328Z 15003KT 10SM SCT028 09/06 A3032 RMK AO2 T00940061 =
2017-10-18 08:53 METAR KRME 181253Z 14003KT 10SM BKN026 07/06 A3031 RMK AO2 SLP265 T00670056 =
2017-10-18 08:49 METAR KRME 181249Z 14003KT 10SM BKN026 06/05 A3031 RMK AO2 =
2017-10-18 07:53 METAR KRME 181153Z 12003KT 10SM CLR 04/03 A3028 RMK AO2 SLP255 T00390028 10078
                 20028 52020 =
2017-10-18 06:53 METAR KRME 181053Z 00000KT 10SM CLR 03/02 A3026 RMK AO2 SLP248 T00280022 =
2017-10-18 05:53 METAR KRME 180953Z AUTO 00000KT 10SM CLR 03/03 A3024 RMK AO2 SLP242 T00330028 =
2017-10-18 04:53 METAR KRME 180853Z AUTO 00000KT 10SM CLR 04/03 A3022 RMK AO2 SLP234 T00440033
                 53010 =
2017-10-18 03:53 METAR KRME 180753Z AUTO 00000KT 10SM CLR 04/03 A3021 RMK AO2 SLP229 T00440033 =
2017-10-18 02:53 METAR KRME 180653Z AUTO 00000KT 10SM SCT060 07/04 A3020 RMK AO2 SLP226 T00670039
                 =
2017-10-18 01:53 METAR KRME 180553Z AUTO 13003KT 10SM BKN060 06/04 A3019 RMK AO2 SLP223 T00610039
                 10100 20050 55002 =
2017-10-18 00:53 METAR KRME 180453Z AUTO 00000KT 10SM CLR 06/04 A3019 RMK AO2 SLP223 T00610044
                 401561017 =
2017-10-17 23:53 METAR KRME 180353Z AUTO 00000KT 10SM OVC065 07/05 A3019 RMK AO2 SLP224 T00670050
                 =
2017-10-17 22:53 METAR KRME 180253Z AUTO 00000KT 10SM OVC070 08/04 A3019 RMK AO2 SLP226 T00780044
                 53010 =
2017-10-17 21:53 METAR KRME 180153Z AUTO 07004KT 10SM CLR 07/03 A3019 RMK AO2 SLP224 T00670033 =
2017-10-17 20:53 METAR KRME 180053Z 09005KT 10SM CLR 09/03 A3017 RMK AO2 SLP217 T00890033 =
2017-10-17 19:53 METAR KRME 172353Z 11006KT 10SM CLR 10/03 A3016 RMK AO2 SLP216 T01000033 10156
                 20094 55000 =
2017-10-17 18:53 METAR KRME 172253Z 11004KT 10SM CLR 11/04 A3016 RMK AO2 SLP215 T01110039 =

Support USWX by starting your Amazon purchase here.